Terminal Aerodrome Forecast
Issued by NWS Rapid City, SD

Home | Current Version | Previous Version | Graphics & Text | Print | Product List | Glossary On
Versions: 1 2 3 4 5 6 7 8 9 10 11 12 13 14 15 16 17 18 19 20 21
000
FTUS43 KUNR 141127
TAFRAP
TAF
KRAP 141127Z 1412/1512 32022G32KT P6SM SCT025 BKN040
     FM141400 33030G40KT P6SM SCT025 BKN040
     FM142100 34020G30KT P6SM SCT100
     FM150100 VRB05KT P6SM SCT150=

USA.gov is the U.S. government's official web portal to all federal, state and local government web resources and services.